Hauptseite
METAR-TAF:

METAR-TAF

Flughäfen :

RAF Northolt

Northolt, England

Breite: 51-33N, Länge: 000-25W, Höhe: 38 m

Beobachtung

Neuester Wetterbericht von vor 33 Minuten, um 10:50 UTC
Wind 8 kt aus Südost
Temperatur 26°C
Luftfeuchtigkeit 39%
Luftdruck 1018 hPa
Sichtweite 10 km oder mehr
keine Wolken unter 1500 m und keine Kumulonimbus oder Gewitterwolken

METAR: EGWU 191050Z 13008KT CAVOK 26/11 Q1018 NOSIG

Zeit: 12:23 (11:23 UTC)

Prognose

Neuester Wetterbericht von vor 3 Stunden und 49 Minuten, um 07:34 UTC
Gültige Prognose vom 19 um 09 UTC bis 20 um 03 UTC
Wind 3 kt aus Süd
Sichtweite 10 km oder mehr
Aufgelockert bewölkt in der Höhe von 4800 ft

TAF: EGWU 190734Z 1909/2003 18003KT 9999 SCT048

Wetterbeobachtungen und Prognosen von mehr als 4000 Flughäfen (METAR und TAF Bericht).

Die verfügbaren Stationen werden durch gelbe und rote Markierungen auf der Karte dargestellt.

Führen Sie die Maus auf sie, um den Namen der Station zu sehen.

Darauf klicken, um die Beobachtung von Wetterbeobachtungen und Prognosen zu sehen.

Um die Karte zu ändern : klicken Sie auf den grünen Tasten mit einem schwarzen Kreuz Zum Vergrößern, auf den grünen Button mit einem Gedankenstrich zu verkleinern, oder auf die grünen Pfeile für benachbarte Karten.


METAR-TAF: